createdAt,value
2019-05-05T00:00:17.317Z,1006.1
2019-05-05T00:01:19.378Z,1006.1
2019-05-05T00:02:21.459Z,1006.1
2019-05-05T00:03:25.214Z,1006.1
2019-05-05T00:04:27.291Z,1006.1
2019-05-05T00:05:29.365Z,1006.2
2019-05-05T00:06:31.435Z,1006.2
2019-05-05T00:07:35.730Z,1006.2
2019-05-05T00:08:37.858Z,1006.2
2019-05-05T00:09:39.925Z,1006.2
2019-05-05T00:10:42.340Z,1006.2
2019-05-05T00:11:46.716Z,1006.3
2019-05-05T00:12:48.771Z,1006.3
2019-05-05T00:13:50.882Z,1006.3
2019-05-05T00:14:54.969Z,1006.3
2019-05-05T00:15:57.031Z,1006.3
2019-05-05T00:16:59.144Z,1006.3
2019-05-05T00:18:01.178Z,1006.3
2019-05-05T00:19:05.061Z,1006.3
2019-05-05T00:20:07.527Z,1006.3
2019-05-05T00:21:09.609Z,1006.3
2019-05-05T00:22:11.687Z,1006.3
2019-05-05T00:23:14.830Z,1006.4
2019-05-05T00:24:16.963Z,1006.4
2019-05-05T00:25:19.598Z,1006.4
2019-05-05T00:26:24.189Z,1006.4
2019-05-05T00:27:26.454Z,1006.3
2019-05-05T00:28:28.502Z,1006.4
2019-05-05T00:29:30.908Z,1006.4
2019-05-05T00:30:34.588Z,1006.5
2019-05-05T00:31:36.987Z,1006.4
2019-05-05T00:32:39.055Z,1006.4
2019-05-05T00:33:41.126Z,1006.5
2019-05-05T00:34:44.738Z,1006.4
2019-05-05T00:35:46.791Z,1006.4
2019-05-05T00:36:48.937Z,1006.5
2019-05-05T00:37:51.273Z,1006.4
2019-05-05T00:38:55.932Z,1006.5
2019-05-05T00:39:58.379Z,1006.5
2019-05-05T00:41:00.457Z,1006.5
2019-05-05T00:42:04.583Z,1006.5
2019-05-05T00:43:07.268Z,1006.5
2019-05-05T00:44:09.769Z,1006.5
2019-05-05T00:45:11.819Z,1006.5
2019-05-05T00:46:16.842Z,1006.5
2019-05-05T00:47:18.930Z,1006.5
2019-05-05T00:48:21.004Z,1006.5
2019-05-05T00:49:25.279Z,1006.4
2019-05-05T00:50:27.354Z,1006.5
2019-05-05T00:51:29.456Z,1006.5
2019-05-05T00:52:31.922Z,1006.5
2019-05-05T00:53:34.628Z,1006.5
2019-05-05T00:54:36.752Z,1006.5
2019-05-05T00:55:38.831Z,1006.5
2019-05-05T00:56:40.983Z,1006.5
2019-05-05T00:57:44.804Z,1006.5
2019-05-05T00:58:47.439Z,1006.6
2019-05-05T00:59:49.518Z,1006.6
2019-05-05T01:00:51.576Z,1006.6
2019-05-05T01:01:55.529Z,1006.6
2019-05-05T01:02:57.975Z,1006.6
2019-05-05T01:04:00.108Z,1006.6
2019-05-05T01:05:04.772Z,1006.6
2019-05-05T01:06:06.856Z,1006.6
2019-05-05T01:07:08.967Z,1006.6
2019-05-05T01:08:11.029Z,1006.6
2019-05-05T01:09:15.050Z,1006.6
2019-05-05T01:10:17.137Z,1006.7
2019-05-05T01:11:19.196Z,1006.7
2019-05-05T01:12:21.312Z,1006.7
2019-05-05T01:13:25.609Z,1006.7
2019-05-05T01:14:27.740Z,1006.7
2019-05-05T01:15:29.804Z,1006.7
2019-05-05T01:16:31.874Z,1006.7
2019-05-05T01:17:34.811Z,1006.7
2019-05-05T01:18:36.866Z,1006.7
2019-05-05T01:19:38.991Z,1006.7
2019-05-05T01:20:41.058Z,1006.8
2019-05-05T01:21:45.622Z,1006.7
2019-05-05T01:22:47.688Z,1006.7
2019-05-05T01:23:49.763Z,1006.8
2019-05-05T01:24:51.879Z,1006.8
2019-05-05T01:25:54.703Z,1006.8
2019-05-05T01:26:56.821Z,1006.7
2019-05-05T01:27:58.879Z,1006.8
2019-05-05T01:29:00.940Z,1006.7
2019-05-05T01:30:05.266Z,1006.8
2019-05-05T01:31:07.328Z,1006.7
2019-05-05T01:32:09.442Z,1006.7
2019-05-05T01:33:11.515Z,1006.7
2019-05-05T01:34:15.764Z,1006.8
2019-05-05T01:35:17.907Z,1006.8
2019-05-05T01:36:19.976Z,1006.8
2019-05-05T01:37:22.106Z,1006.8
2019-05-05T01:38:25.046Z,1006.8
2019-05-05T01:39:27.123Z,1006.8
2019-05-05T01:40:29.235Z,1006.8
2019-05-05T01:41:31.305Z,1006.8
2019-05-05T01:42:35.479Z,1006.8
2019-05-05T01:43:37.809Z,1006.9
2019-05-05T01:44:39.886Z,1006.8
2019-05-05T01:45:42.009Z,1006.9
2019-05-05T01:46:44.769Z,1006.9
2019-05-05T01:47:46.891Z,1006.9
2019-05-05T01:48:48.965Z,1007
2019-05-05T01:49:51.037Z,1006.9
2019-05-05T01:50:54.663Z,1007
2019-05-05T01:51:56.722Z,1007
2019-05-05T01:52:59.166Z,1007
2019-05-05T01:54:01.236Z,1007
2019-05-05T01:55:05.472Z,1007
2019-05-05T01:56:07.540Z,1007
2019-05-05T01:57:09.610Z,1007
2019-05-05T01:58:11.772Z,1007
2019-05-05T01:59:14.697Z,1007
2019-05-05T02:00:17.089Z,1007
2019-05-05T02:01:19.144Z,1007
2019-05-05T02:02:21.490Z,1007
2019-05-05T02:03:24.679Z,1007
2019-05-05T02:04:27.134Z,1007
2019-05-05T02:05:29.253Z,1007
2019-05-05T02:06:31.375Z,1007
2019-05-05T02:07:34.516Z,1007
2019-05-05T02:08:37.202Z,1007.1
2019-05-05T02:09:39.269Z,1007.1
2019-05-05T02:10:41.404Z,1007.1
2019-05-05T02:11:45.551Z,1007
2019-05-05T02:12:47.675Z,1007.1
2019-05-05T02:13:49.738Z,1007.1
2019-05-05T02:14:51.857Z,1007.1
2019-05-05T02:15:56.970Z,1007.1
2019-05-05T02:16:59.405Z,1007.1
2019-05-05T02:18:01.535Z,1007.1
2019-05-05T02:19:06.170Z,1007.1
2019-05-05T02:20:08.295Z,1007
2019-05-05T02:21:10.915Z,1007.1
2019-05-05T02:22:14.965Z,1007.1
2019-05-05T02:23:17.030Z,1007.2
2019-05-05T02:24:19.093Z,1007.1
2019-05-05T02:25:21.526Z,1007.1
2019-05-05T02:26:24.854Z,1007.1
2019-05-05T02:27:27.263Z,1007.1
2019-05-05T02:28:29.312Z,1007.2
2019-05-05T02:29:31.377Z,1007.1
2019-05-05T02:30:36.223Z,1007.1
2019-05-05T02:31:38.964Z,1007.1
2019-05-05T02:32:41.732Z,1007.2
2019-05-05T02:33:47.422Z,1007.2
2019-05-05T02:34:49.497Z,1007.2
2019-05-05T02:35:55.291Z,1007.1
2019-05-05T02:36:57.902Z,1007.2
2019-05-05T02:38:00.705Z,1007.2
2019-05-05T02:39:05.721Z,1007.2
2019-05-05T02:40:08.062Z,1007.1
2019-05-05T02:41:10.768Z,1007.2
2019-05-05T02:42:15.011Z,1007.2
2019-05-05T02:43:17.111Z,1007.2
2019-05-05T02:44:19.194Z,1007.2
2019-05-05T02:45:24.628Z,1007.2
2019-05-05T02:46:27.010Z,1007.2
2019-05-05T02:47:29.774Z,1007.2
2019-05-05T02:48:31.893Z,1007.2
2019-05-05T02:49:37.140Z,1007.2
2019-05-05T02:51:01.087Z,1007.2
2019-05-05T02:52:08.995Z,1007.2
2019-05-05T02:53:11.014Z,1007.2
2019-05-05T02:54:13.946Z,1007.2
2019-05-05T02:55:16.344Z,1007.2
2019-05-05T02:56:19.193Z,1007.2
2019-05-05T02:57:21.547Z,1007.2
2019-05-05T02:58:26.265Z,1007.2
2019-05-05T02:59:28.351Z,1007.2
2019-05-05T03:00:30.488Z,1007.3
2019-05-05T03:01:34.358Z,1007.2
2019-05-05T03:02:36.711Z,1007.3
2019-05-05T03:03:38.827Z,1007.3
2019-05-05T03:04:40.901Z,1007.3
2019-05-05T03:05:43.722Z,1007.3
2019-05-05T03:06:45.774Z,1007.3
2019-05-05T03:07:47.839Z,1007.3
2019-05-05T03:08:50.240Z,1007.3
2019-05-05T03:09:54.334Z,1007.3
2019-05-05T03:10:56.648Z,1007.3
2019-05-05T03:11:58.719Z,1007.3
2019-05-05T03:13:01.223Z,1007.4
2019-05-05T03:14:04.367Z,1007.4
2019-05-05T03:15:06.463Z,1007.3
2019-05-05T03:16:08.565Z,1007.4
2019-05-05T03:17:10.651Z,1007.4
2019-05-05T03:18:13.722Z,1007.5
2019-05-05T03:19:15.807Z,1007.5
2019-05-05T03:20:17.926Z,1007.5
2019-05-05T03:21:19.996Z,1007.5
2019-05-05T03:22:23.987Z,1007.4
2019-05-05T03:23:26.091Z,1007.4
2019-05-05T03:24:28.178Z,1007.4
2019-05-05T03:25:30.292Z,1007.4
2019-05-05T03:26:34.299Z,1007.5
2019-05-05T03:27:36.370Z,1007.4
2019-05-05T03:28:38.457Z,1007.4
2019-05-05T03:29:40.516Z,1007.5
2019-05-05T03:30:46.021Z,1007.5
2019-05-05T03:31:48.095Z,1007.5
2019-05-05T03:32:50.451Z,1007.5
2019-05-05T03:33:55.229Z,1007.5
2019-05-05T03:34:57.738Z,1007.5
2019-05-05T03:36:00.236Z,1007.5
2019-05-05T03:37:04.447Z,1007.5
2019-05-05T03:38:06.567Z,1007.5
2019-05-05T03:39:08.629Z,1007.5
2019-05-05T03:40:10.707Z,1007.5
2019-05-05T03:41:13.854Z,1007.5
2019-05-05T03:42:16.296Z,1007.5
2019-05-05T03:43:18.365Z,1007.5
2019-05-05T03:44:20.427Z,1007.5
2019-05-05T03:45:23.738Z,1007.6
2019-05-05T03:46:25.811Z,1007.6
2019-05-05T03:47:28.153Z,1007.6
2019-05-05T03:48:30.294Z,1007.7
2019-05-05T03:49:34.095Z,1007.7
2019-05-05T03:50:36.505Z,1007.7
2019-05-05T03:51:38.625Z,1007.7
2019-05-05T03:52:40.982Z,1007.7
2019-05-05T03:53:45.255Z,1007.7
2019-05-05T03:54:47.324Z,1007.7
2019-05-05T03:55:49.392Z,1007.7
2019-05-05T03:56:51.445Z,1007.7
2019-05-05T03:57:55.702Z,1007.7
2019-05-05T03:58:58.619Z,1007.7
2019-05-05T04:00:00.962Z,1007.7
2019-05-05T04:01:04.543Z,1007.7
2019-05-05T04:02:06.893Z,1007.7
2019-05-05T04:03:08.960Z,1007.7
2019-05-05T04:04:11.478Z,1007.7
2019-05-05T04:05:15.473Z,1007.8
2019-05-05T04:06:17.544Z,1007.7
2019-05-05T04:07:19.627Z,1007.8
2019-05-05T04:08:23.759Z,1007.8
2019-05-05T04:09:25.915Z,1007.7
2019-05-05T04:10:28.369Z,1007.7
2019-05-05T04:11:30.773Z,1007.7
2019-05-05T04:12:34.837Z,1007.7
2019-05-05T04:13:37.303Z,1007.8
2019-05-05T04:14:39.409Z,1007.8
2019-05-05T04:15:41.458Z,1007.8
2019-05-05T04:16:45.635Z,1007.8
2019-05-05T04:17:47.995Z,1007.8
2019-05-05T04:18:50.405Z,1007.9
2019-05-05T04:19:54.447Z,1007.9
2019-05-05T04:20:56.528Z,1007.9
2019-05-05T04:21:58.651Z,1007.9
2019-05-05T04:23:00.706Z,1008
2019-05-05T04:24:05.244Z,1007.9
2019-05-05T04:25:07.591Z,1008
2019-05-05T04:26:09.664Z,1008
2019-05-05T04:27:11.786Z,1008
2019-05-05T04:28:16.651Z,1008
2019-05-05T04:29:18.774Z,1008
2019-05-05T04:30:21.107Z,1008
2019-05-05T04:31:25.540Z,1008
2019-05-05T04:32:27.650Z,1008
2019-05-05T04:33:29.709Z,1008
2019-05-05T04:34:32.206Z,1008.1
2019-05-05T04:35:36.587Z,1008
2019-05-05T04:36:38.701Z,1008.1
2019-05-05T04:37:40.772Z,1008.1
2019-05-05T04:38:45.219Z,1008.1
2019-05-05T04:39:47.318Z,1008.1
2019-05-05T04:40:49.398Z,1008.1
2019-05-05T04:41:51.471Z,1008.1
2019-05-05T04:42:55.805Z,1008.1
2019-05-05T04:43:57.876Z,1008.1
2019-05-05T04:45:00.228Z,1008.1
2019-05-05T04:46:04.394Z,1008.2
2019-05-05T04:47:06.655Z,1008.1
2019-05-05T04:48:09.006Z,1008.2
2019-05-05T04:49:11.075Z,1008.3
2019-05-05T04:50:18.489Z,1008.2
2019-05-05T04:51:20.562Z,1008.2
2019-05-05T04:52:23.908Z,1008.3
2019-05-05T04:53:25.984Z,1008.3
2019-05-05T04:54:28.065Z,1008.3
2019-05-05T04:55:30.116Z,1008.3
2019-05-05T04:56:34.547Z,1008.2
2019-05-05T04:57:36.951Z,1008.3
2019-05-05T04:58:39.025Z,1008.2
2019-05-05T04:59:41.140Z,1008.3
2019-05-05T05:00:44.426Z,1008.2
2019-05-05T05:01:46.515Z,1008.2
2019-05-05T05:02:48.646Z,1008.3
2019-05-05T05:03:50.698Z,1008.3
2019-05-05T05:04:53.830Z,1008.3
2019-05-05T05:05:56.273Z,1008.3
2019-05-05T05:06:58.349Z,1008.3
2019-05-05T05:08:00.407Z,1008.3
2019-05-05T05:09:04.301Z,1008.4
2019-05-05T05:10:06.369Z,1008.4
2019-05-05T05:11:08.443Z,1008.4
2019-05-05T05:12:10.794Z,1008.4
2019-05-05T05:13:14.148Z,1008.3
2019-05-05T05:14:16.246Z,1008.4
2019-05-05T05:15:18.379Z,1008.4
2019-05-05T05:16:20.433Z,1008.4
2019-05-05T05:17:25.106Z,1008.4
2019-05-05T05:18:27.474Z,1008.4
2019-05-05T05:19:29.535Z,1008.4
2019-05-05T05:20:33.772Z,1008.5
2019-05-05T05:21:36.066Z,1008.5
2019-05-05T05:22:38.182Z,1008.5
2019-05-05T05:23:40.246Z,1008.5
2019-05-05T05:24:44.466Z,1008.5
2019-05-05T05:25:46.757Z,1008.5
2019-05-05T05:26:48.936Z,1008.5
2019-05-05T05:27:53.407Z,1008.5
2019-05-05T05:28:55.711Z,1008.6
2019-05-05T05:29:57.866Z,1008.5
2019-05-05T05:31:00.208Z,1008.5
2019-05-05T05:32:04.406Z,1008.5
2019-05-05T05:33:06.858Z,1008.5
2019-05-05T05:34:09.260Z,1008.5
2019-05-05T05:35:11.376Z,1008.5
2019-05-05T05:36:16.051Z,1008.6
2019-05-05T05:37:18.199Z,1008.6
2019-05-05T05:38:20.251Z,1008.6
2019-05-05T05:39:24.282Z,1008.6
2019-05-05T05:40:26.573Z,1008.7
2019-05-05T05:41:28.650Z,1008.6
2019-05-05T05:42:30.776Z,1008.7
2019-05-05T05:43:35.377Z,1008.6
2019-05-05T05:44:37.436Z,1008.7
2019-05-05T05:45:39.552Z,1008.6
2019-05-05T05:46:41.635Z,1008.7
2019-05-05T05:47:45.747Z,1008.7
2019-05-05T05:48:47.814Z,1008.7
2019-05-05T05:49:50.276Z,1008.6
2019-05-05T05:50:53.963Z,1008.7
2019-05-05T05:51:56.034Z,1008.7
2019-05-05T05:52:58.446Z,1008.7
2019-05-05T05:54:00.784Z,1008.7
2019-05-05T05:55:05.059Z,1008.8
2019-05-05T05:56:07.195Z,1008.7
2019-05-05T05:57:09.651Z,1008.7
2019-05-05T05:58:14.258Z,1008.8
2019-05-05T05:59:16.624Z,1008.8
2019-05-05T06:00:18.976Z,1008.8
2019-05-05T06:01:23.790Z,1008.8
2019-05-05T06:02:26.335Z,1008.8
2019-05-05T06:03:28.441Z,1008.8
2019-05-05T06:04:30.517Z,1008.8
2019-05-05T06:05:34.607Z,1008.9
2019-05-05T06:06:36.966Z,1008.8
2019-05-05T06:07:39.057Z,1008.9
2019-05-05T06:08:41.444Z,1008.8
2019-05-05T06:09:45.866Z,1008.9
2019-05-05T06:10:47.977Z,1008.9
2019-05-05T06:11:50.063Z,1008.9
2019-05-05T06:12:54.093Z,1009
2019-05-05T06:13:56.949Z,1009
2019-05-05T06:14:59.309Z,1009
2019-05-05T06:16:01.433Z,1009
2019-05-05T06:17:06.302Z,1009
2019-05-05T06:18:08.416Z,1009
2019-05-05T06:19:10.658Z,1009
2019-05-05T06:20:15.092Z,1009
2019-05-05T06:21:17.429Z,1009
2019-05-05T06:22:31.526Z,1009
2019-05-05T06:23:36.285Z,1009
2019-05-05T06:24:38.368Z,1009
2019-05-05T06:25:40.717Z,1009.1
2019-05-05T06:26:44.879Z,1009
2019-05-05T06:27:46.986Z,1009
2019-05-05T06:28:49.055Z,1009.1
2019-05-05T06:29:51.134Z,1009.1
2019-05-05T06:30:55.806Z,1009
2019-05-05T06:31:57.873Z,1009.1
2019-05-05T06:33:00.231Z,1009
2019-05-05T06:34:04.023Z,1009.1
2019-05-05T06:35:06.138Z,1009.1
2019-05-05T06:36:08.222Z,1009.1
2019-05-05T06:37:10.271Z,1009.1
2019-05-05T06:38:13.914Z,1009.2
2019-05-05T06:39:16.365Z,1009.1
2019-05-05T06:40:18.771Z,1009.1
2019-05-05T06:41:21.227Z,1009.1
2019-05-05T06:42:25.340Z,1009.1
2019-05-05T06:43:27.410Z,1009.1
2019-05-05T06:44:29.471Z,1009.1
2019-05-05T06:45:31.577Z,1009.1
2019-05-05T06:46:36.164Z,1009.1
2019-05-05T06:47:38.237Z,1009.2
2019-05-05T06:48:40.655Z,1009.1
2019-05-05T06:49:45.710Z,1009.1
2019-05-05T06:50:47.781Z,1009.1
2019-05-05T06:51:49.858Z,1009.1
2019-05-05T06:52:54.153Z,1009.2
2019-05-05T06:53:56.646Z,1009.1
2019-05-05T06:54:59.392Z,1009.1
2019-05-05T06:56:01.519Z,1009.2
2019-05-05T06:57:05.934Z,1009.2
2019-05-05T06:58:08.294Z,1009.2
2019-05-05T06:59:10.362Z,1009.2
2019-05-05T07:00:14.194Z,1009.2
2019-05-05T07:01:16.593Z,1009.2
2019-05-05T07:02:19.443Z,1009.2
2019-05-05T07:03:24.128Z,1009.2
2019-05-05T07:04:26.383Z,1009.2
2019-05-05T07:05:28.461Z,1009.2
2019-05-05T07:06:30.838Z,1009.2
2019-05-05T07:07:34.834Z,1009.2
2019-05-05T07:08:36.957Z,1009.2
2019-05-05T07:09:39.054Z,1009.2
2019-05-05T07:10:41.152Z,1009.2
2019-05-05T07:11:43.965Z,1009.2
2019-05-05T07:12:46.039Z,1009.3
2019-05-05T07:13:48.179Z,1009.3
2019-05-05T07:14:50.537Z,1009.2
2019-05-05T07:15:54.503Z,1009.3
2019-05-05T07:16:56.581Z,1009.3
2019-05-05T07:17:58.651Z,1009.2
2019-05-05T07:19:01.794Z,1009.2
2019-05-05T07:20:06.542Z,1009.2
2019-05-05T07:21:08.945Z,1009.3
2019-05-05T07:22:11.024Z,1009.3
2019-05-05T07:23:15.486Z,1009.3
2019-05-05T07:24:17.554Z,1009.3
2019-05-05T07:25:19.922Z,1009.3
2019-05-05T07:26:24.307Z,1009.3
2019-05-05T07:27:27.039Z,1009.3
2019-05-05T07:28:29.175Z,1009.3
2019-05-05T07:29:31.259Z,1009.3
2019-05-05T07:30:36.346Z,1009.3
2019-05-05T07:31:38.424Z,1009.2
2019-05-05T07:32:40.952Z,1009.3
2019-05-05T07:33:44.093Z,1009.2
2019-05-05T07:34:46.154Z,1009.3
2019-05-05T07:36:01.544Z,1009.3
2019-05-05T07:37:08.288Z,1009.2
2019-05-05T07:38:10.373Z,1009.2
2019-05-05T07:39:14.579Z,1009.2
2019-05-05T07:40:16.675Z,1009.2
2019-05-05T07:41:19.146Z,1009.2
2019-05-05T07:42:24.086Z,1009.2
2019-05-05T07:43:26.737Z,1009.3
2019-05-05T07:44:30.029Z,1009.3
2019-05-05T07:45:34.773Z,1009.3
2019-05-05T07:46:36.858Z,1009.3
2019-05-05T07:47:38.950Z,1009.3
2019-05-05T07:48:41.072Z,1009.3
2019-05-05T07:49:45.573Z,1009.3
2019-05-05T07:51:02.733Z,1009.3
2019-05-05T07:52:08.270Z,1009.3
2019-05-05T07:53:17.821Z,1009.3
2019-05-05T07:54:19.994Z,1009.3
2019-05-05T07:55:24.049Z,1009.3
2019-05-05T07:56:26.122Z,1009.3
2019-05-05T07:57:28.797Z,1009.3
2019-05-05T07:58:30.922Z,1009.3
2019-05-05T07:59:34.340Z,1009.3
2019-05-05T08:00:36.470Z,1009.3
2019-05-05T08:01:38.528Z,1009.3
2019-05-05T08:02:40.610Z,1009.3
2019-05-05T08:03:45.664Z,1009.3
2019-05-05T08:04:48.127Z,1009.3
2019-05-05T08:05:50.645Z,1009.3
2019-05-05T08:06:54.185Z,1009.3
2019-05-05T08:07:56.584Z,1009.3
2019-05-05T08:08:58.686Z,1009.3
2019-05-05T08:10:00.782Z,1009.3
2019-05-05T08:11:05.091Z,1009.3
2019-05-05T08:12:07.164Z,1009.3
2019-05-05T08:13:09.683Z,1009.3
2019-05-05T08:16:18.808Z,1009.3
2019-05-05T08:17:20.901Z,1009.3
2019-05-05T08:18:25.192Z,1009.2
2019-05-05T08:19:27.285Z,1009.3
2019-05-05T08:20:29.360Z,1009.4
2019-05-05T08:21:32.024Z,1009.4
2019-05-05T08:22:36.555Z,1009.3
2019-05-05T08:23:38.693Z,1009.3
2019-05-05T08:24:41.158Z,1009.3
2019-05-05T08:25:45.707Z,1009.3
2019-05-05T08:26:47.898Z,1009.3
2019-05-05T08:27:50.236Z,1009.3
2019-05-05T08:28:54.261Z,1009.3
2019-05-05T08:29:56.905Z,1009.3
2019-05-05T08:30:59.009Z,1009.3
2019-05-05T08:32:01.415Z,1009.3
2019-05-05T08:33:05.806Z,1009.3
2019-05-05T08:34:08.261Z,1009.3
2019-05-05T08:35:10.327Z,1009.3
2019-05-05T08:36:14.461Z,1009.4
2019-05-05T08:37:16.771Z,1009.3
2019-05-05T08:38:19.139Z,1009.4
2019-05-05T08:39:24.527Z,1009.4
2019-05-05T08:40:26.694Z,1009.4
2019-05-05T08:41:29.204Z,1009.4
2019-05-05T08:42:31.303Z,1009.4
2019-05-05T08:43:35.997Z,1009.4
2019-05-05T08:44:38.255Z,1009.3
2019-05-05T08:45:40.294Z,1009.3
2019-05-05T08:46:44.757Z,1009.3
2019-05-05T08:47:46.903Z,1009.4
2019-05-05T08:48:49.008Z,1009.4
2019-05-05T08:49:51.090Z,1009.4
2019-05-05T08:50:55.493Z,1009.4
2019-05-05T08:51:57.608Z,1009.4
2019-05-05T08:52:59.705Z,1009.4
2019-05-05T08:54:04.392Z,1009.4
2019-05-05T08:55:06.478Z,1009.4
2019-05-05T08:56:08.585Z,1009.4
2019-05-05T08:57:10.758Z,1009.4
2019-05-05T08:58:15.072Z,1009.4
2019-05-05T08:59:17.893Z,1009.4
2019-05-05T09:00:19.986Z,1009.4
2019-05-05T09:01:24.064Z,1009.4
2019-05-05T09:02:26.254Z,1009.3
2019-05-05T09:03:28.653Z,1009.3
2019-05-05T09:04:30.812Z,1009.4
2019-05-05T09:05:35.306Z,1009.4
2019-05-05T09:06:38.091Z,1009.4
2019-05-05T09:07:40.453Z,1009.4
2019-05-05T09:08:44.467Z,1009.4
2019-05-05T09:09:46.849Z,1009.4
2019-05-05T09:10:55.170Z,1009.4
2019-05-05T09:11:57.461Z,1009.4
2019-05-05T09:12:59.584Z,1009.5
2019-05-05T09:14:03.911Z,1009.5
2019-05-05T09:15:06.177Z,1009.5
2019-05-05T09:16:08.353Z,1009.4
2019-05-05T09:17:10.449Z,1009.5
2019-05-05T09:18:15.459Z,1009.5
2019-05-05T09:19:17.724Z,1009.4
2019-05-05T09:20:19.806Z,1009.4
2019-05-05T09:21:24.176Z,1009.4
2019-05-05T09:22:26.278Z,1009.5
2019-05-05T09:23:28.414Z,1009.4
2019-05-05T09:24:30.494Z,1009.4
2019-05-05T09:25:34.411Z,1009.3
2019-05-05T09:26:37.183Z,1009.4
2019-05-05T09:27:39.613Z,1009.4
2019-05-05T09:28:41.825Z,1009.3
2019-05-05T09:29:46.479Z,1009.4
2019-05-05T09:30:48.641Z,1009.4
2019-05-05T09:31:50.927Z,1009.4
2019-05-05T09:32:55.317Z,1009.4
2019-05-05T09:33:57.575Z,1009.3
2019-05-05T09:34:59.659Z,1009.3
2019-05-05T09:36:02.016Z,1009.4
2019-05-05T09:37:06.520Z,1009.3
2019-05-05T09:38:08.940Z,1009.4
2019-05-05T09:39:11.086Z,1009.3
2019-05-05T09:40:15.493Z,1009.4
2019-05-05T09:41:17.727Z,1009.4
2019-05-05T09:42:19.827Z,1009.3
2019-05-05T09:43:24.263Z,1009.4
2019-05-05T09:44:26.398Z,1009.4
2019-05-05T09:45:28.511Z,1009.3
2019-05-05T09:46:30.664Z,1009.3
2019-05-05T09:47:34.623Z,1009.3
2019-05-05T09:48:37.144Z,1009.4
2019-05-05T09:49:39.247Z,1009.3
2019-05-05T09:50:43.932Z,1009.4
2019-05-05T09:51:46.781Z,1009.4
2019-05-05T09:52:48.892Z,1009.4
2019-05-05T09:53:51.055Z,1009.4
2019-05-05T09:54:55.641Z,1009.4
2019-05-05T09:55:58.817Z,1009.4
2019-05-05T09:57:01.014Z,1009.5
2019-05-05T09:58:06.800Z,1009.5
2019-05-05T09:59:09.732Z,1009.5
2019-05-05T10:00:14.303Z,1009.5
2019-05-05T10:01:17.354Z,1009.5
2019-05-05T10:02:19.439Z,1009.4
2019-05-05T10:03:21.814Z,1009.4
2019-05-05T10:04:24.596Z,1009.4
2019-05-05T10:05:26.654Z,1009.4
2019-05-05T10:06:28.803Z,1009.4
2019-05-05T10:07:30.880Z,1009.4
2019-05-05T10:08:34.424Z,1009.5
2019-05-05T10:09:36.521Z,1009.5
2019-05-05T10:10:38.640Z,1009.5
2019-05-05T10:11:40.788Z,1009.5
2019-05-05T10:12:44.868Z,1009.5
2019-05-05T10:13:47.021Z,1009.5
2019-05-05T10:14:49.115Z,1009.5
2019-05-05T10:15:51.224Z,1009.5
2019-05-05T10:16:54.638Z,1009.5
2019-05-05T10:17:56.723Z,1009.5
2019-05-05T10:18:58.881Z,1009.4
2019-05-05T10:20:03.788Z,1009.5
2019-05-05T10:21:06.794Z,1009.5
2019-05-05T10:22:08.883Z,1009.5
2019-05-05T10:23:11.293Z,1009.5
2019-05-05T10:24:30.944Z,1009.5
2019-05-05T10:25:35.741Z,1009.5
2019-05-05T10:26:37.846Z,1009.5
2019-05-05T10:27:47.662Z,1009.5
2019-05-05T10:28:49.919Z,1009.6
2019-05-05T10:29:52.018Z,1009.5
2019-05-05T10:30:56.906Z,1009.6
2019-05-05T10:31:58.989Z,1009.6
2019-05-05T10:33:01.095Z,1009.6
2019-05-05T10:34:05.714Z,1009.5
2019-05-05T10:35:07.805Z,1009.6
2019-05-05T10:36:09.958Z,1009.6
2019-05-05T10:37:14.421Z,1009.5
2019-05-05T10:38:16.563Z,1009.5
2019-05-05T10:39:18.655Z,1009.5
2019-05-05T10:40:20.743Z,1009.5
2019-05-05T10:41:24.120Z,1009.6
2019-05-05T10:42:26.225Z,1009.5
2019-05-05T10:43:28.370Z,1009.5
2019-05-05T10:44:30.459Z,1009.6
2019-05-05T10:45:32.540Z,1009.5
2019-05-05T10:46:35.354Z,1009.6
2019-05-05T10:47:37.442Z,1009.5
2019-05-05T10:48:39.593Z,1009.5
2019-05-05T10:49:43.927Z,1009.5
2019-05-05T10:50:46.253Z,1009.6
2019-05-05T10:51:48.365Z,1009.5
2019-05-05T10:52:50.459Z,1009.6
2019-05-05T10:53:55.142Z,1009.5
2019-05-05T10:54:57.515Z,1009.5
2019-05-05T10:55:59.662Z,1009.5
2019-05-05T10:57:04.146Z,1009.5
2019-05-05T10:58:06.734Z,1009.5
2019-05-05T10:59:08.880Z,1009.5
2019-05-05T11:00:15.633Z,1009.5
2019-05-05T11:01:17.801Z,1009.5
2019-05-05T11:02:19.898Z,1009.4
2019-05-05T11:03:24.005Z,1009.5
2019-05-05T11:04:26.112Z,1009.5
2019-05-05T11:05:28.210Z,1009.4
2019-05-05T11:06:30.354Z,1009.4
2019-05-05T11:07:34.334Z,1009.4
2019-05-05T11:08:36.489Z,1009.3
2019-05-05T11:09:38.889Z,1009.3
2019-05-05T11:10:40.978Z,1009.4
2019-05-05T11:11:44.155Z,1009.4
2019-05-05T11:12:46.254Z,1009.4
2019-05-05T11:13:48.410Z,1009.4
2019-05-05T11:14:50.520Z,1009.4
2019-05-05T11:15:54.861Z,1009.5
2019-05-05T11:16:57.239Z,1009.4
2019-05-05T11:17:59.337Z,1009.5
2019-05-05T11:19:01.757Z,1009.4
2019-05-05T11:20:06.529Z,1009.4
2019-05-05T11:21:08.680Z,1009.4
2019-05-05T11:22:10.767Z,1009.4
2019-05-05T11:23:15.438Z,1009.4
2019-05-05T11:24:17.605Z,1009.4
2019-05-05T11:25:19.725Z,1009.3
2019-05-05T11:26:22.189Z,1009.3
2019-05-05T11:27:26.511Z,1009.4
2019-05-05T11:28:28.674Z,1009.4
2019-05-05T11:29:30.765Z,1009.4
2019-05-05T11:30:34.246Z,1009.4
2019-05-05T11:31:36.733Z,1009.4
2019-05-05T11:32:38.844Z,1009.4
2019-05-05T11:33:40.989Z,1009.4
2019-05-05T11:34:46.014Z,1009.3
2019-05-05T11:35:48.168Z,1009.4
2019-05-05T11:36:50.255Z,1009.3
2019-05-05T11:37:54.465Z,1009.4
2019-05-05T11:38:56.642Z,1009.5
2019-05-05T11:39:59.001Z,1009.4
2019-05-05T11:41:01.548Z,1009.4
2019-05-05T11:42:04.715Z,1009.4
2019-05-05T11:43:07.506Z,1009.5
2019-05-05T11:44:09.981Z,1009.5
2019-05-05T11:45:15.101Z,1009.4
2019-05-05T11:46:17.240Z,1009.4
2019-05-05T11:47:19.332Z,1009.3
2019-05-05T11:48:21.496Z,1009.3
2019-05-05T11:49:26.292Z,1009.4
2019-05-05T11:50:28.407Z,1009.3
2019-05-05T11:51:30.507Z,1009.3
2019-05-05T11:52:33.959Z,1009.3
2019-05-05T11:53:36.105Z,1009.3
2019-05-05T11:54:38.478Z,1009.4
2019-05-05T11:55:40.623Z,1009.4
2019-05-05T11:56:44.870Z,1009.3
2019-05-05T11:57:47.258Z,1009.3
2019-05-05T11:58:49.395Z,1009.4
2019-05-05T11:59:51.483Z,1009.4
2019-05-05T12:00:55.714Z,1009.4
2019-05-05T12:01:57.816Z,1009.3
2019-05-05T12:02:59.957Z,1009.3
2019-05-05T12:04:04.265Z,1009.3
2019-05-05T12:05:06.943Z,1009.3
2019-05-05T12:06:09.095Z,1009.3
2019-05-05T12:07:11.411Z,1009.3
2019-05-05T12:08:15.230Z,1009.3
2019-05-05T12:09:17.324Z,1009.3
2019-05-05T12:10:19.423Z,1009.3
2019-05-05T12:11:23.468Z,1009.4
2019-05-05T12:12:26.116Z,1009.3
2019-05-05T12:13:28.573Z,1009.4
2019-05-05T12:14:30.683Z,1009.3
2019-05-05T12:15:34.378Z,1009.3
2019-05-05T12:16:36.473Z,1009.3
2019-05-05T12:17:38.895Z,1009.2
2019-05-05T12:18:41.042Z,1009.2
2019-05-05T12:19:43.761Z,1009.2
2019-05-05T12:20:45.896Z,1009.3
2019-05-05T12:21:47.997Z,1009.2
2019-05-05T12:22:50.071Z,1009.2
2019-05-05T12:23:54.424Z,1009.2
2019-05-05T12:24:56.696Z,1009.2
2019-05-05T12:25:58.838Z,1009.1
2019-05-05T12:27:00.927Z,1009.2
2019-05-05T12:28:05.348Z,1009.1
2019-05-05T12:29:07.410Z,1009.2
2019-05-05T12:30:09.770Z,1009.2
2019-05-05T12:31:14.355Z,1009.2
2019-05-05T12:32:16.438Z,1009.1
2019-05-05T12:33:18.579Z,1009.2
2019-05-05T12:34:20.960Z,1009.1
2019-05-05T12:35:25.596Z,1009.2
2019-05-05T12:36:27.732Z,1009.1
2019-05-05T12:37:29.827Z,1009.2
2019-05-05T12:38:31.950Z,1009.2
2019-05-05T12:39:36.975Z,1009.2
2019-05-05T12:40:39.122Z,1009.2
2019-05-05T12:41:41.275Z,1009.2
2019-05-05T12:42:44.257Z,1009.1
2019-05-05T12:43:46.348Z,1009.2
2019-05-05T12:44:48.495Z,1009.2
2019-05-05T12:45:50.599Z,1009.2
2019-05-05T12:46:52.720Z,1009.2
2019-05-05T12:47:54.827Z,1009.2
2019-05-05T12:48:56.902Z,1009.2
2019-05-05T12:49:59.048Z,1009.2
2019-05-05T12:51:01.122Z,1009.2
2019-05-05T12:52:04.856Z,1009.2
2019-05-05T12:53:06.933Z,1009.2
2019-05-05T12:54:09.030Z,1009.1
2019-05-05T12:55:11.130Z,1009.1
2019-05-05T12:56:15.583Z,1009.1
2019-05-05T12:57:18.032Z,1009.1
2019-05-05T12:58:20.132Z,1009.2
2019-05-05T12:59:22.282Z,1009.1
2019-05-05T13:00:27.126Z,1009
2019-05-05T13:01:29.211Z,1009
2019-05-05T13:02:31.298Z,1009
2019-05-05T13:03:35.129Z,1008.9
2019-05-05T13:04:37.903Z,1009
2019-05-05T13:05:39.974Z,1009
2019-05-05T13:06:42.070Z,1009
2019-05-05T13:07:46.741Z,1009
2019-05-05T13:08:48.827Z,1009
2019-05-05T13:09:50.969Z,1008.9
2019-05-05T13:10:53.701Z,1009